Time;durP1;ratioP1;P1;durP2;ratioP2;P2;SDS_P1;SDS_P2;PMS_P1;PMS_P2;Temp;Humidity;BMP_temperature;BMP_pressure;BME280_temperature;BME280_humidity;BME280_pressure;Samples;Min_cycle;Max_cycle;Signal;HPM_P1;HPM_P2
2023/04/06 00:01:05;;;;;;;1.20;1.10;;;;;0.60;96174.00;;;;5076677;28;20305;-62
2023/04/06 00:03:32;;;;;;;2.00;1.87;;;;;0.70;96163.00;;;;5076454;28;20199;-63
2023/04/06 00:06:00;;;;;;;0.97;0.97;;;;;0.80;96163.00;;;;5077090;28;20216;-62
2023/04/06 00:08:28;;;;;;;1.60;1.50;;;;;0.60;96161.00;;;;5077328;28;20289;-61
2023/04/06 00:10:56;;;;;;;1.50;1.30;;;;;0.50;96162.00;;;;5076262;28;20221;-61
2023/04/06 00:13:23;;;;;;;1.10;1.10;;;;;0.40;96163.00;;;;5076280;28;20243;-62
2023/04/06 00:15:50;;;;;;;0.70;0.70;;;;;0.50;96163.00;;;;5076507;28;20273;-63
2023/04/06 00:18:20;;;;;;;1.40;1.30;;;;;0.60;96153.00;;;;5076550;28;20218;-62
2023/04/06 00:20:47;;;;;;;1.37;1.37;;;;;0.60;96154.00;;;;5076114;28;20213;-62
2023/04/06 00:23:15;;;;;;;1.00;1.00;;;;;0.70;96150.00;;;;5076530;28;20198;-62
2023/04/06 00:25:42;;;;;;;1.13;1.03;;;;;0.60;96148.00;;;;5075920;28;20688;-62
2023/04/06 00:28:10;;;;;;;1.30;1.30;;;;;0.60;96152.00;;;;5075849;28;20208;-62
2023/04/06 00:30:37;;;;;;;1.30;1.27;;;;;0.50;96142.00;;;;5075576;28;20324;-62
2023/04/06 00:33:05;;;;;;;1.30;1.30;;;;;0.70;96146.00;;;;5076133;28;20194;-62
2023/04/06 00:35:33;;;;;;;0.90;0.90;;;;;0.70;96149.00;;;;5076054;28;20203;-62
2023/04/06 00:38:01;;;;;;;1.53;1.43;;;;;0.50;96148.00;;;;5075626;28;20289;-62
2023/04/06 00:40:29;;;;;;;1.13;1.03;;;;;0.50;96145.00;;;;5075662;28;20218;-62
2023/04/06 00:42:56;;;;;;;0.90;0.90;;;;;0.40;96141.00;;;;5075956;28;20229;-62
2023/04/06 00:45:24;;;;;;;1.60;1.37;;;;;0.20;96140.00;;;;5075899;28;20201;-62
2023/04/06 00:47:51;;;;;;;1.10;1.10;;;;;0.30;96143.00;;;;5074451;28;20210;-62
2023/04/06 00:50:19;;;;;;;1.77;1.10;;;;;0.30;96123.00;;;;5076011;28;20207;-62
2023/04/06 00:52:48;;;;;;;1.30;1.20;;;;;0.30;96132.00;;;;5074187;28;20193;-62
2023/04/06 00:55:16;;;;;;;2.10;1.50;;;;;0.30;96124.00;;;;5075506;28;20285;-62
2023/04/06 00:57:43;;;;;;;1.10;1.10;;;;;0.30;96125.00;;;;5075365;28;20679;-62
2023/04/06 01:00:12;;;;;;;1.57;1.33;;;;;0.30;96131.00;;;;5075284;28;20307;-62
2023/04/06 01:02:40;;;;;;;0.70;0.70;;;;;0.40;96124.00;;;;5075978;28;20616;-62
2023/04/06 01:05:08;;;;;;;1.67;1.57;;;;;0.40;96120.00;;;;5074068;28;20206;-62
2023/04/06 01:07:35;;;;;;;0.97;0.97;;;;;0.20;96118.00;;;;5075299;28;20197;-62
2023/04/06 01:10:04;;;;;;;0.87;0.87;;;;;0.10;96120.00;;;;5075589;28;20300;-62
2023/04/06 01:12:32;;;;;;;7.87;2.07;;;;;0.00;96117.00;;;;5075137;28;20195;-61
2023/04/06 01:15:00;;;;;;;1.40;1.40;;;;;0.00;96116.00;;;;5075307;28;20248;-62
2023/04/06 01:17:28;;;;;;;0.80;0.80;;;;;-0.20;96124.00;;;;5075042;28;20204;-62
2023/04/06 01:19:55;;;;;;;1.10;1.10;;;;;-0.10;96117.00;;;;5073580;28;20222;-61
2023/04/06 01:22:26;;;;;;;1.27;1.20;;;;;-0.10;96110.00;;;;5074486;28;20205;-62
2023/04/06 01:24:53;;;;;;;1.10;1.10;;;;;-0.10;96114.00;;;;5075181;28;20215;-62
2023/04/06 01:27:21;;;;;;;1.30;1.20;;;;;0.00;96110.00;;;;5073622;28;20221;-62
2023/04/06 01:29:48;;;;;;;1.33;1.23;;;;;0.00;96107.00;;;;5074645;28;20213;-61
2023/04/06 01:32:16;;;;;;;1.37;1.27;;;;;-0.10;96110.00;;;;5075283;28;20176;-62
2023/04/06 01:34:43;;;;;;;1.47;1.37;;;;;-0.10;96105.00;;;;5074957;28;20727;-62
2023/04/06 01:37:11;;;;;;;2.00;1.57;;;;;-0.10;96108.00;;;;5074749;28;20186;-62
2023/04/06 01:39:40;;;;;;;1.37;1.30;;;;;-0.10;96111.00;;;;5074417;28;20244;-62
2023/04/06 01:42:07;;;;;;;1.13;1.13;;;;;-0.10;96107.00;;;;5074964;28;20195;-62
2023/04/06 01:44:35;;;;;;;2.10;1.63;;;;;-0.20;96098.00;;;;5074981;28;20305;-61
2023/04/06 01:47:02;;;;;;;0.80;0.80;;;;;-0.20;96104.00;;;;5074468;28;20277;-62
2023/04/06 01:49:30;;;;;;;1.83;1.73;;;;;-0.20;96106.00;;;;5074589;28;20269;-60
2023/04/06 01:51:57;;;;;;;2.07;1.87;;;;;-0.30;96097.00;;;;5074489;28;20272;-62
2023/04/06 01:54:25;;;;;;;1.20;1.20;;;;;-0.30;96097.00;;;;5074560;28;20197;-62
2023/04/06 01:56:55;;;;;;;1.10;1.10;;;;;-0.30;96095.00;;;;5074522;28;20604;-60
2023/04/06 01:59:22;;;;;;;1.80;1.70;;;;;-0.30;96094.00;;;;5074057;28;20223;-60
2023/04/06 02:01:50;;;;;;;1.77;1.67;;;;;-0.40;96082.00;;;;5074059;28;20235;-61
2023/04/06 02:04:17;;;;;;;2.23;1.73;;;;;-0.30;96101.00;;;;5074074;28;20722;-60
2023/04/06 02:06:45;;;;;;;1.83;1.30;;;;;-0.40;96083.00;;;;5073979;28;20194;-61
2023/04/06 02:09:12;;;;;;;1.30;1.20;;;;;-0.50;96090.00;;;;5073853;28;20227;-61
2023/04/06 02:11:40;;;;;;;1.20;1.20;;;;;-0.50;96087.00;;;;5072701;28;20316;-61
2023/04/06 02:14:09;;;;;;;2.20;1.40;;;;;-0.40;96083.00;;;;5073836;28;20192;-61
2023/04/06 02:16:36;;;;;;;1.93;1.83;;;;;-0.50;96084.00;;;;5074061;28;20205;-61
2023/04/06 02:19:04;;;;;;;1.20;1.20;;;;;-0.40;96086.00;;;;5073991;28;20220;-61
2023/04/06 02:21:31;;;;;;;2.00;1.90;;;;;-0.40;96093.00;;;;5072713;28;20264;-61
2023/04/06 02:23:59;;;;;;;1.27;1.20;;;;;-0.50;96086.00;;;;5073727;28;20202;-61
2023/04/06 02:26:26;;;;;;;1.23;1.23;;;;;-0.50;96087.00;;;;5072318;28;20266;-61
2023/04/06 02:28:54;;;;;;;3.63;1.47;;;;;-0.60;96089.00;;;;5073506;28;20581;-61
2023/04/06 02:31:23;;;;;;;1.00;1.00;;;;;-0.50;96088.00;;;;5073615;28;20242;-61
2023/04/06 02:33:50;;;;;;;1.43;1.33;;;;;-0.50;96071.00;;;;5073803;28;20193;-61
2023/04/06 02:36:18;;;;;;;0.90;0.90;;;;;-0.60;96085.00;;;;5073643;28;20648;-61
2023/04/06 02:38:45;;;;;;;2.20;1.87;;;;;-0.50;96078.00;;;;5073424;28;20201;-62
2023/04/06 02:41:12;;;;;;;3.03;1.67;;;;;-0.60;96078.00;;;;5073559;28;20307;-61
2023/04/06 02:43:40;;;;;;;0.80;0.80;;;;;-0.70;96075.00;;;;5073617;28;20223;-61
2023/04/06 02:46:08;;;;;;;0.77;0.77;;;;;-0.80;96077.00;;;;5073331;28;20188;-63
2023/04/06 02:48:37;;;;;;;1.33;1.33;;;;;-0.70;96074.00;;;;5073579;28;20203;-62
2023/04/06 02:51:04;;;;;;;1.73;1.63;;;;;-0.70;96082.00;;;;5073186;28;20268;-60
2023/04/06 02:53:32;;;;;;;0.90;0.90;;;;;-0.80;96079.00;;;;5073729;28;20195;-63
2023/04/06 02:55:59;;;;;;;1.80;1.70;;;;;-0.80;96080.00;;;;5073455;28;20220;-61
2023/04/06 02:58:27;;;;;;;0.90;0.90;;;;;-0.90;96082.00;;;;5073149;28;20694;-61
2023/04/06 03:00:54;;;;;;;1.90;1.27;;;;;-0.80;96080.00;;;;5073083;28;20235;-61
2023/04/06 03:03:22;;;;;;;0.90;0.90;;;;;-0.70;96071.00;;;;5073100;28;20205;-61
2023/04/06 03:05:50;;;;;;;2.13;1.93;;;;;-0.80;96075.00;;;;5073522;28;20194;-61
2023/04/06 03:08:18;;;;;;;1.23;1.20;;;;;-0.90;96064.00;;;;5072985;28;20743;-61
2023/04/06 03:10:45;;;;;;;2.87;1.30;;;;;-1.00;96077.00;;;;5072891;28;20753;-61
2023/04/06 03:13:13;;;;;;;1.00;1.00;;;;;-0.90;96072.00;;;;5073815;28;20205;-61
2023/04/06 03:15:40;;;;;;;1.20;1.20;;;;;-1.00;96075.00;;;;5072684;28;20198;-61
2023/04/06 03:18:08;;;;;;;1.10;1.10;;;;;-1.00;96079.00;;;;5073501;28;20195;-61
2023/04/06 03:20:35;;;;;;;1.77;1.67;;;;;-1.20;96078.00;;;;5072978;28;20298;-61
2023/04/06 03:23:04;;;;;;;2.73;1.43;;;;;-1.20;96085.00;;;;5072830;28;20562;-60
2023/04/06 03:25:31;;;;;;;2.23;2.13;;;;;-1.20;96077.00;;;;5072873;28;20584;-61
2023/04/06 03:27:59;;;;;;;1.00;1.00;;;;;-1.30;96073.00;;;;5073324;28;20199;-61
2023/04/06 03:30:27;;;;;;;1.00;1.00;;;;;-1.10;96075.00;;;;5072555;28;20219;-61
2023/04/06 03:32:54;;;;;;;1.30;1.30;;;;;-1.10;96078.00;;;;5072958;28;20216;-61
2023/04/06 03:35:22;;;;;;;1.10;1.10;;;;;-1.00;96078.00;;;;5072858;28;20194;-61
2023/04/06 03:37:49;;;;;;;1.40;1.30;;;;;-0.90;96088.00;;;;5073143;28;20560;-61
2023/04/06 03:40:18;;;;;;;0.80;0.80;;;;;-0.90;96084.00;;;;5072603;28;20682;-61
2023/04/06 03:42:45;;;;;;;2.50;1.87;;;;;-0.90;96083.00;;;;5072564;28;20196;-62
2023/04/06 03:45:13;;;;;;;0.90;0.90;;;;;-1.00;96075.00;;;;5072574;28;20583;-62
2023/04/06 03:47:41;;;;;;;1.00;1.00;;;;;-1.00;96084.00;;;;5071449;28;20236;-62
2023/04/06 03:50:09;;;;;;;1.33;1.23;;;;;-1.00;96082.00;;;;5072809;28;20207;-62
2023/04/06 03:52:36;;;;;;;3.83;1.93;;;;;-1.00;96088.00;;;;5072546;28;20240;-62
2023/04/06 03:55:05;;;;;;;1.30;1.23;;;;;-1.10;96078.00;;;;5072561;28;20202;-62
2023/04/06 03:57:33;;;;;;;1.93;1.83;;;;;-1.00;96079.00;;;;5072679;28;20188;-62
2023/04/06 04:00:01;;;;;;;1.50;1.43;;;;;-1.10;96086.00;;;;5072845;28;20221;-62
2023/04/06 04:02:29;;;;;;;1.10;1.10;;;;;-1.20;96007.00;;;;5072855;28;20283;-61
2023/04/06 04:04:56;;;;;;;0.97;0.97;;;;;-1.30;96099.00;;;;5071196;28;20248;-62
2023/04/06 04:07:24;;;;;;;1.53;1.43;;;;;-1.30;96044.00;;;;5072621;28;20192;-62
2023/04/06 04:09:51;;;;;;;2.00;1.90;;;;;-1.30;96093.00;;;;5072331;28;20205;-62
2023/04/06 04:12:19;;;;;;;2.17;2.07;;;;;-1.40;96086.00;;;;5073183;28;20196;-62
2023/04/06 04:14:48;;;;;;;1.57;1.43;;;;;-1.30;96081.00;;;;5072697;28;20208;-64
2023/04/06 04:17:15;;;;;;;1.23;1.20;;;;;-1.30;96104.00;;;;5072340;28;20192;-62
2023/04/06 04:19:43;;;;;;;1.30;1.30;;;;;-1.30;96091.00;;;;5072249;28;20216;-62
2023/04/06 04:22:10;;;;;;;1.17;1.17;;;;;-1.30;96086.00;;;;5072360;28;20190;-62
2023/04/06 04:24:37;;;;;;;1.30;1.30;;;;;-1.20;96084.00;;;;5072248;28;20196;-62
2023/04/06 04:27:05;;;;;;;1.47;1.37;;;;;-1.00;96085.00;;;;5075123;28;20689;-62
2023/04/06 04:29:33;;;;;;;1.53;1.30;;;;;-1.10;96092.00;;;;5076088;28;20195;-62
2023/04/06 04:32:02;;;;;;;2.77;1.27;;;;;-1.20;96085.00;;;;5076141;28;20225;-62
2023/04/06 04:34:30;;;;;;;1.13;1.13;;;;;-1.40;96093.00;;;;5076024;28;20673;-62
2023/04/06 04:36:58;;;;;;;1.37;1.37;;;;;-1.70;96084.00;;;;5075705;28;20211;-62
2023/04/06 04:39:25;;;;;;;1.00;1.00;;;;;-1.70;96088.00;;;;5076065;28;20204;-62
2023/04/06 04:41:53;;;;;;;1.37;1.03;;;;;-1.50;96088.00;;;;5075730;28;20291;-62
2023/04/06 04:44:20;;;;;;;1.30;1.30;;;;;-1.40;96093.00;;;;5075615;28;20219;-62
2023/04/06 04:46:48;;;;;;;1.67;1.57;;;;;-1.30;96097.00;;;;5075808;28;20688;-62
2023/04/06 04:49:17;;;;;;;2.43;2.30;;;;;-1.40;96098.00;;;;5075644;28;20203;-62
2023/04/06 04:51:44;;;;;;;1.80;1.63;;;;;-1.40;96099.00;;;;5075693;28;20211;-62
2023/04/06 04:54:12;;;;;;;1.20;1.10;;;;;-1.50;96098.00;;;;5075460;28;20223;-61
2023/04/06 04:56:39;;;;;;;1.13;1.13;;;;;-1.80;96096.00;;;;5074090;28;20227;-63
2023/04/06 04:59:07;;;;;;;1.13;1.13;;;;;-1.60;96100.00;;;;5074072;28;20265;-62
2023/04/06 05:01:34;;;;;;;1.60;1.50;;;;;-1.50;96099.00;;;;5075212;28;20585;-62
2023/04/06 05:04:02;;;;;;;1.37;1.37;;;;;-1.70;96100.00;;;;5075263;28;20558;-61
2023/04/06 05:06:30;;;;;;;1.27;1.20;;;;;-1.60;96113.00;;;;5075150;28;20191;-62
2023/04/06 05:08:58;;;;;;;1.60;1.50;;;;;-1.70;96112.00;;;;5075240;28;20198;-62
2023/04/06 05:11:26;;;;;;;1.63;1.53;;;;;-1.70;96102.00;;;;5075218;28;20208;-62
2023/04/06 05:13:53;;;;;;;1.50;1.40;;;;;-1.50;96098.00;;;;5075100;28;20655;-62
2023/04/06 05:16:21;;;;;;;2.03;1.60;;;;;-1.50;96101.00;;;;5074982;28;20192;-62
2023/04/06 05:18:56;;;;;;;1.13;1.13;;;;;-1.50;96110.00;;;;5075248;28;20675;-62
2023/04/06 05:21:24;;;;;;;1.70;1.60;;;;;-1.40;96113.00;;;;5074948;28;20222;-63
2023/04/06 05:23:53;;;;;;;1.37;1.37;;;;;-1.40;96104.00;;;;5074906;28;20200;-63
2023/04/06 05:26:21;;;;;;;1.17;1.17;;;;;-1.30;96101.00;;;;5073550;28;20203;-62
2023/04/06 05:28:49;;;;;;;1.57;1.47;;;;;-1.30;96105.00;;;;5074647;28;20195;-62
2023/04/06 05:31:16;;;;;;;1.20;1.20;;;;;-1.30;96120.00;;;;5073640;28;20294;-62
2023/04/06 05:33:44;;;;;;;1.37;1.37;;;;;-1.20;96112.00;;;;5073947;28;20194;-62
2023/04/06 05:36:11;;;;;;;0.97;0.97;;;;;-1.20;96104.00;;;;5073650;28;20270;-63
2023/04/06 05:38:39;;;;;;;1.10;1.10;;;;;-1.10;96112.00;;;;5072746;28;20253;-62
2023/04/06 05:41:08;;;;;;;1.57;1.57;;;;;-1.00;96115.00;;;;5073694;28;20219;-62
2023/04/06 05:43:35;;;;;;;1.57;1.47;;;;;-1.10;96107.00;;;;5073943;28;20187;-62
2023/04/06 05:46:03;;;;;;;0.87;0.87;;;;;-0.90;96126.00;;;;5072910;28;20593;-62
2023/04/06 05:48:30;;;;;;;1.10;1.10;;;;;-0.90;96110.00;;;;5073691;28;20187;-62
2023/04/06 05:50:57;;;;;;;1.60;1.53;;;;;-0.80;96119.00;;;;5073806;28;20709;-62
2023/04/06 05:53:26;;;;;;;1.73;1.63;;;;;-0.80;96125.00;;;;5073893;28;20199;-62
2023/04/06 05:55:53;;;;;;;1.63;1.53;;;;;-0.70;96131.00;;;;5073562;28;20195;-63
2023/04/06 05:58:22;;;;;;;1.13;1.13;;;;;-0.70;96122.00;;;;5073274;28;20199;-62
2023/04/06 06:00:49;;;;;;;2.27;2.17;;;;;-0.60;96130.00;;;;5073772;28;20224;-62
2023/04/06 06:03:17;;;;;;;1.23;1.23;;;;;-0.50;96129.00;;;;5073479;28;20246;-62
2023/04/06 06:05:44;;;;;;;1.37;1.33;;;;;-0.50;96122.00;;;;5071832;28;20205;-62
2023/04/06 06:08:12;;;;;;;1.30;1.23;;;;;-0.50;96125.00;;;;5071927;28;20218;-62
2023/04/06 06:10:40;;;;;;;2.20;1.67;;;;;-0.40;96120.00;;;;5073513;28;20578;-62
2023/04/06 06:13:08;;;;;;;3.17;2.87;;;;;-0.50;96125.00;;;;5073465;28;20219;-62
2023/04/06 06:15:40;;;;;;;1.50;1.30;;;;;-0.30;96133.00;;;;5073482;28;20196;-62
2023/04/06 06:18:07;;;;;;;1.00;1.00;;;;;-0.40;96128.00;;;;5073619;28;20180;-62
2023/04/06 06:20:35;;;;;;;1.33;1.27;;;;;-0.30;96127.00;;;;5072722;28;20664;-62
2023/04/06 06:23:02;;;;;;;1.37;1.37;;;;;-0.20;96126.00;;;;5072900;28;20196;-62
2023/04/06 06:25:31;;;;;;;1.30;1.30;;;;;-0.10;96117.00;;;;5072924;28;20602;-62
2023/04/06 06:27:59;;;;;;;1.50;1.40;;;;;-0.10;96126.00;;;;5073321;28;20243;-61
2023/04/06 06:30:26;;;;;;;1.10;1.10;;;;;0.00;96123.00;;;;5034389;28;1114021;-62
2023/04/06 06:32:55;;;;;;;1.20;1.20;;;;;0.00;96128.00;;;;5074070;28;20556;-62
2023/04/06 06:35:23;;;;;;;1.13;1.13;;;;;0.00;96128.00;;;;5074270;28;20256;-62
2023/04/06 06:37:50;;;;;;;0.83;0.83;;;;;0.20;96136.00;;;;5073707;28;20655;-62
2023/04/06 06:40:18;;;;;;;1.53;1.53;;;;;0.30;96132.00;;;;5073604;28;20221;-62
2023/04/06 06:42:45;;;;;;;1.03;1.03;;;;;0.40;96139.00;;;;5073339;28;20204;-62
2023/04/06 06:45:13;;;;;;;1.87;1.77;;;;;0.50;96132.00;;;;5073499;28;20230;-62
2023/04/06 06:47:41;;;;;;;1.73;1.30;;;;;0.60;96124.00;;;;5073266;28;20576;-63
2023/04/06 06:50:10;;;;;;;1.43;1.43;;;;;0.60;96134.00;;;;5073142;28;20224;-61
2023/04/06 06:52:37;;;;;;;1.20;1.20;;;;;0.80;96131.00;;;;5073569;28;20284;-62
2023/04/06 06:55:06;;;;;;;1.17;1.13;;;;;1.00;96128.00;;;;5073444;28;20280;-62
2023/04/06 06:57:33;;;;;;;1.90;1.80;;;;;0.80;96134.00;;;;5073675;28;20224;-62
2023/04/06 07:00:00;;;;;;;0.83;0.83;;;;;1.00;96136.00;;;;5073239;28;20689;-62
2023/04/06 07:02:28;;;;;;;1.77;1.67;;;;;1.10;96128.00;;;;5073597;28;20198;-62
2023/04/06 07:04:55;;;;;;;1.20;1.20;;;;;1.10;96132.00;;;;5073343;28;20214;-63
2023/04/06 07:07:24;;;;;;;1.13;1.13;;;;;1.20;96127.00;;;;5073277;28;20650;-61
2023/04/06 07:09:52;;;;;;;1.87;1.70;;;;;1.50;96123.00;;;;5072941;28;20211;-62
2023/04/06 07:12:19;;;;;;;1.47;1.37;;;;;1.40;96127.00;;;;5073148;28;20681;-61
2023/04/06 07:14:47;;;;;;;1.30;1.30;;;;;1.40;96124.00;;;;5072870;28;20221;-61
2023/04/06 07:17:14;;;;;;;1.37;1.37;;;;;1.70;96121.00;;;;5073063;28;20302;-61
2023/04/06 07:19:42;;;;;;;1.07;1.07;;;;;1.80;96124.00;;;;5072894;28;20195;-60
2023/04/06 07:22:09;;;;;;;1.00;1.00;;;;;2.00;96128.00;;;;5072673;28;20693;-61
2023/04/06 07:24:38;;;;;;;2.10;2.00;;;;;2.00;96134.00;;;;5073079;28;20535;-60
2023/04/06 07:27:07;;;;;;;1.57;1.47;;;;;2.30;96127.00;;;;5072805;28;20208;-60
2023/04/06 07:29:34;;;;;;;1.63;1.53;;;;;2.40;96122.00;;;;5072792;28;20283;-59
2023/04/06 07:32:02;;;;;;;1.40;1.30;;;;;2.40;96128.00;;;;5073018;28;20562;-62
2023/04/06 07:34:29;;;;;;;1.40;1.30;;;;;2.20;96126.00;;;;5072995;28;20195;-61
2023/04/06 07:36:57;;;;;;;1.77;1.67;;;;;2.40;96138.00;;;;5072692;28;20240;-61
2023/04/06 07:39:26;;;;;;;1.13;1.13;;;;;2.70;96121.00;;;;5071652;28;20195;-62
2023/04/06 07:41:55;;;;;;;2.30;1.57;;;;;2.90;96137.00;;;;5072873;28;20207;-62
2023/04/06 07:44:22;;;;;;;2.10;1.90;;;;;3.00;96124.00;;;;5072968;28;20183;-62
2023/04/06 07:46:50;;;;;;;1.13;1.13;;;;;3.10;96122.00;;;;5072843;28;20554;-62
2023/04/06 07:49:17;;;;;;;3.73;2.63;;;;;3.40;96132.00;;;;5072604;28;20191;-63
2023/04/06 07:51:45;;;;;;;1.90;1.80;;;;;3.50;96134.00;;;;5072652;28;20231;-62
2023/04/06 07:54:12;;;;;;;1.90;1.80;;;;;3.60;96130.00;;;;5072691;28;20195;-62
2023/04/06 07:56:40;;;;;;;5.00;1.67;;;;;3.80;96142.00;;;;5072741;28;20196;-62
2023/04/06 07:59:11;;;;;;;1.17;1.17;;;;;3.90;96134.00;;;;5072539;28;20557;-62
2023/04/06 08:01:38;;;;;;;1.97;1.60;;;;;3.90;96132.00;;;;5074682;28;20381;-62
2023/04/06 08:04:06;;;;;;;1.17;1.17;;;;;4.20;96125.00;;;;5075533;28;20203;-62
2023/04/06 08:06:34;;;;;;;0.90;0.90;;;;;4.20;96134.00;;;;5076686;28;20714;-62
2023/04/06 08:09:01;;;;;;;1.73;1.63;;;;;4.10;96136.00;;;;5076260;28;20196;-62
2023/04/06 08:11:29;;;;;;;1.40;1.30;;;;;4.40;96144.00;;;;5076752;28;20230;-61
2023/04/06 08:13:58;;;;;;;1.20;1.20;;;;;4.40;96133.00;;;;5076625;28;20678;-61
2023/04/06 08:16:27;;;;;;;2.47;1.73;;;;;4.70;96133.00;;;;5076297;28;20272;-61
2023/04/06 08:18:54;;;;;;;1.53;1.40;;;;;4.80;96130.00;;;;5076465;28;20199;-61
2023/04/06 08:21:23;;;;;;;1.90;1.40;;;;;5.00;96123.00;;;;5075998;28;20219;-61
2023/04/06 08:23:50;;;;;;;4.93;1.67;;;;;5.30;96130.00;;;;5076192;28;20266;-60
2023/04/06 08:26:18;;;;;;;0.97;0.97;;;;;5.60;96129.00;;;;5076059;28;20218;-62
2023/04/06 08:28:45;;;;;;;0.87;0.87;;;;;5.80;96128.00;;;;5076198;28;20202;-61
2023/04/06 08:31:13;;;;;;;1.27;1.27;;;;;5.90;96115.00;;;;5074524;28;20255;-62
2023/04/06 08:33:41;;;;;;;0.93;0.93;;;;;6.00;96117.00;;;;5076394;28;20195;-61
2023/04/06 08:36:11;;;;;;;4.63;1.63;;;;;6.10;96116.00;;;;5075936;28;20198;-62
2023/04/06 08:38:38;;;;;;;1.10;1.10;;;;;6.40;96113.00;;;;5075951;28;20215;-62
2023/04/06 08:41:10;;;;;;;1.97;1.87;;;;;6.40;96119.00;;;;5075770;28;20233;-62
2023/04/06 08:43:44;;;;;;;1.77;1.67;;;;;6.50;96118.00;;;;5076067;28;20203;-62
2023/04/06 08:46:13;;;;;;;1.23;1.23;;;;;6.80;96121.00;;;;5076437;28;20294;-62
2023/04/06 08:48:43;;;;;;;1.37;1.30;;;;;7.20;96120.00;;;;5076246;28;20254;-62
2023/04/06 08:51:11;;;;;;;1.50;1.40;;;;;7.20;96111.00;;;;5075506;28;20262;-62
2023/04/06 08:53:39;;;;;;;1.20;1.20;;;;;7.40;96119.00;;;;5075836;28;20244;-62
2023/04/06 08:56:08;;;;;;;1.57;1.47;;;;;7.50;96116.00;;;;5076220;28;20217;-62
2023/04/06 08:58:40;;;;;;;1.80;1.20;;;;;7.80;96123.00;;;;5075998;28;20294;-62
2023/04/06 09:01:09;;;;;;;1.27;1.17;;;;;7.80;96117.00;;;;5075306;28;20257;-62
2023/04/06 09:03:39;;;;;;;1.63;1.53;;;;;7.90;96116.00;;;;5075429;28;20195;-62
2023/04/06 09:06:09;;;;;;;1.60;1.33;;;;;8.00;96121.00;;;;5075611;28;20198;-62
2023/04/06 09:08:39;;;;;;;1.53;1.47;;;;;8.00;96117.00;;;;5075278;28;20313;-62
2023/04/06 09:11:07;;;;;;;1.83;1.60;;;;;8.10;96112.00;;;;5075390;28;20215;-62
2023/04/06 09:13:47;;;;;;;1.47;1.37;;;;;8.10;96118.00;;;;5073929;28;20198;-62
2023/04/06 09:16:15;;;;;;;1.10;1.10;;;;;8.10;96110.00;;;;5075769;28;20190;-62
2023/04/06 09:18:42;;;;;;;0.90;0.90;;;;;8.20;96114.00;;;;5075364;28;20225;-62
2023/04/06 09:21:12;;;;;;;1.67;1.57;;;;;8.60;96115.00;;;;5075149;28;20306;-62
2023/04/06 09:23:40;;;;;;;1.30;1.20;;;;;8.50;96116.00;;;;5075120;28;20741;-62
2023/04/06 09:26:10;;;;;;;1.53;1.43;;;;;8.40;96106.00;;;;5075094;28;20191;-62
2023/04/06 09:28:48;;;;;;;1.37;1.37;;;;;8.70;96112.00;;;;5074922;28;20191;-62
2023/04/06 09:31:17;;;;;;;0.93;0.93;;;;;8.60;96118.00;;;;5073353;28;20219;-62
2023/04/06 09:33:46;;;;;;;1.97;1.87;;;;;8.80;96114.00;;;;5074821;28;20274;-62
2023/04/06 09:36:16;;;;;;;1.40;1.37;;;;;9.10;96112.00;;;;5074869;28;20199;-62
2023/04/06 09:38:55;;;;;;;3.43;1.73;;;;;9.20;96113.00;;;;5073491;28;20191;-62
2023/04/06 09:41:24;;;;;;;1.67;1.60;;;;;9.40;96118.00;;;;5074984;28;20602;-62
2023/04/06 09:43:52;;;;;;;0.90;0.90;;;;;9.20;96125.00;;;;5074589;28;20191;-62
2023/04/06 09:46:23;;;;;;;1.43;1.20;;;;;9.40;96111.00;;;;5074987;28;20677;-62
2023/04/06 09:48:52;;;;;;;1.60;1.50;;;;;9.30;96120.00;;;;5075041;28;20600;-62
2023/04/06 09:51:22;;;;;;;1.67;1.57;;;;;9.00;96118.00;;;;5074554;28;20208;-63
2023/04/06 09:53:54;;;;;;;1.20;1.20;;;;;8.50;96106.00;;;;5074366;28;20198;-62
2023/04/06 09:56:28;;;;;;;1.30;1.30;;;;;8.70;96106.00;;;;5074541;28;20253;-62
2023/04/06 09:59:03;;;;;;;1.90;1.80;;;;;8.70;96108.00;;;;5073076;28;20187;-62
2023/04/06 10:01:34;;;;;;;2.27;1.87;;;;;9.30;96100.00;;;;5074077;28;20631;-62
2023/04/06 10:04:11;;;;;;;2.17;2.07;;;;;9.50;96112.00;;;;5074801;28;20172;-62
2023/04/06 10:06:40;;;;;;;3.47;2.43;;;;;9.40;96099.00;;;;5074910;28;20584;-62
2023/04/06 10:09:09;;;;;;;2.00;1.90;;;;;9.60;96112.00;;;;5074640;28;20202;-62
2023/04/06 10:11:37;;;;;;;1.63;1.53;;;;;9.90;96118.00;;;;5073971;28;20693;-61
2023/04/06 10:14:04;;;;;;;1.13;1.13;;;;;10.00;96110.00;;;;5074140;28;20196;-61
2023/04/06 10:16:33;;;;;;;1.20;1.20;;;;;10.10;96111.00;;;;5074600;28;20249;-62
2023/04/06 10:19:07;;;;;;;1.00;1.00;;;;;10.10;96105.00;;;;5074000;28;20283;-62
2023/04/06 10:21:36;;;;;;;1.47;1.47;;;;;10.30;96107.00;;;;5073740;28;20229;-62
2023/04/06 10:24:11;;;;;;;1.53;1.43;;;;;10.20;96101.00;;;;5073550;28;20270;-61
2023/04/06 10:26:39;;;;;;;5.07;1.77;;;;;10.60;96093.00;;;;5073993;28;20263;-62
2023/04/06 10:29:07;;;;;;;1.67;1.57;;;;;10.80;96089.00;;;;5073808;28;20195;-62
2023/04/06 10:31:40;;;;;;;1.43;1.33;;;;;11.10;96095.00;;;;5073477;28;20226;-62
2023/04/06 10:34:07;;;;;;;1.00;1.00;;;;;11.30;96097.00;;;;5072417;28;20222;-62
2023/04/06 10:36:35;;;;;;;1.50;1.40;;;;;11.30;96091.00;;;;5073676;28;20192;-61
2023/04/06 10:39:06;;;;;;;1.10;1.10;;;;;11.70;96092.00;;;;5073555;28;20226;-62
2023/04/06 10:41:34;;;;;;;1.13;1.13;;;;;11.50;96090.00;;;;5073721;28;20583;-61
2023/04/06 10:44:02;;;;;;;1.40;1.30;;;;;11.90;96084.00;;;;5073502;28;20195;-61
2023/04/06 10:46:32;;;;;;;0.67;0.67;;;;;12.20;96093.00;;;;5073758;28;20195;-62
2023/04/06 10:49:10;;;;;;;1.17;1.17;;;;;12.30;96081.00;;;;5073707;28;20198;-62
2023/04/06 10:51:39;;;;;;;0.90;0.90;;;;;12.40;96089.00;;;;5073866;28;20281;-62
2023/04/06 10:54:10;;;;;;;0.97;0.97;;;;;12.10;96084.00;;;;5073296;28;20668;-62
2023/04/06 10:56:39;;;;;;;1.23;1.23;;;;;11.60;96078.00;;;;5073571;28;20194;-62
2023/04/06 10:59:08;;;;;;;1.27;1.27;;;;;11.40;96087.00;;;;5073533;28;20249;-62
2023/04/06 11:01:36;;;;;;;0.90;0.90;;;;;10.80;96078.00;;;;5073330;28;20684;-62
2023/04/06 11:04:03;;;;;;;1.73;1.63;;;;;10.00;96084.00;;;;5073313;28;20202;-62
2023/04/06 11:06:32;;;;;;;2.40;1.20;;;;;10.80;96078.00;;;;5073548;28;20199;-62
2023/04/06 11:09:00;;;;;;;1.33;1.33;;;;;10.70;96071.00;;;;5073210;28;20198;-62
2023/04/06 11:11:29;;;;;;;0.90;0.90;;;;;11.10;96061.00;;;;5073052;28;20218;-62
2023/04/06 11:13:58;;;;;;;1.23;1.17;;;;;11.50;96071.00;;;;5073297;28;20203;-61
2023/04/06 11:16:26;;;;;;;1.47;1.37;;;;;12.00;96066.00;;;;5072962;28;20191;-61
2023/04/06 11:18:56;;;;;;;2.57;2.37;;;;;12.60;96069.00;;;;5072948;28;20196;-61
2023/04/06 11:21:35;;;;;;;2.40;1.83;;;;;13.20;96066.00;;;;5071732;28;20241;-61
2023/04/06 11:24:10;;;;;;;1.00;1.00;;;;;13.30;96060.00;;;;5073219;28;20635;-61
2023/04/06 11:26:45;;;;;;;4.73;1.47;;;;;12.90;96059.00;;;;5072729;28;20556;-61
2023/04/06 11:29:13;;;;;;;0.93;0.93;;;;;12.80;96047.00;;;;5073804;28;20178;-61
2023/04/06 11:31:46;;;;;;;1.73;1.63;;;;;13.30;96054.00;;;;5072811;28;20219;-61
2023/04/06 11:34:16;;;;;;;1.33;1.30;;;;;12.60;96045.00;;;;5071492;28;20189;-61
2023/04/06 11:36:45;;;;;;;1.80;1.70;;;;;13.10;96050.00;;;;5072300;28;20226;-61
2023/04/06 11:39:18;;;;;;;1.47;1.40;;;;;13.60;96047.00;;;;5073107;28;20646;-61
2023/04/06 11:41:50;;;;;;;1.97;1.67;;;;;13.70;96055.00;;;;5072866;28;20215;-61
2023/04/06 11:44:30;;;;;;;1.83;1.73;;;;;13.80;96039.00;;;;5072934;28;20191;-62
2023/04/06 11:46:59;;;;;;;0.87;0.87;;;;;13.80;96049.00;;;;5072694;28;20180;-61
2023/04/06 11:49:29;;;;;;;1.27;1.13;;;;;14.30;96044.00;;;;5072593;28;20286;-61
2023/04/06 11:51:57;;;;;;;0.90;0.90;;;;;14.40;96037.00;;;;5072855;28;20553;-61
2023/04/06 11:54:35;;;;;;;0.87;0.87;;;;;14.70;96041.00;;;;5072470;28;20198;-61
2023/04/06 11:57:05;;;;;;;1.37;1.30;;;;;15.20;96033.00;;;;5073069;28;20202;-61
2023/04/06 11:59:33;;;;;;;1.30;1.30;;;;;15.20;96025.00;;;;5072651;28;20639;-60
2023/04/06 12:02:02;;;;;;;2.00;1.70;;;;;15.40;96027.00;;;;5072707;28;20652;-61
2023/04/06 12:04:29;;;;;;;1.73;1.63;;;;;16.00;96020.00;;;;5072779;28;20550;-61
2023/04/06 12:06:57;;;;;;;1.97;1.47;;;;;15.60;96022.00;;;;5072516;28;20270;-61
2023/04/06 12:09:25;;;;;;;1.57;1.47;;;;;15.20;96021.00;;;;5073009;28;20203;-60
2023/04/06 12:11:52;;;;;;;1.67;1.57;;;;;15.50;96018.00;;;;5072559;28;20212;-60
2023/04/06 12:14:22;;;;;;;0.90;0.90;;;;;15.10;96027.00;;;;5072628;28;20553;-61
2023/04/06 12:16:50;;;;;;;2.43;1.27;;;;;15.40;96016.00;;;;5072739;28;20275;-61
2023/04/06 12:19:17;;;;;;;3.70;2.07;;;;;14.90;96014.00;;;;5072714;28;20187;-61
2023/04/06 12:21:45;;;;;;;1.57;1.47;;;;;14.80;96020.00;;;;5072273;28;20687;-61
2023/04/06 12:24:13;;;;;;;1.77;1.67;;;;;15.50;96016.00;;;;5072421;28;20227;-61
2023/04/06 12:26:41;;;;;;;1.40;1.40;;;;;15.40;96018.00;;;;5071307;28;20200;-61